createdAt,value
2023-02-12T00:01:29.320Z,52.72
2023-02-12T00:03:58.520Z,52.96
2023-02-12T00:06:27.412Z,52.33
2023-02-12T00:08:57.143Z,52.76
2023-02-12T00:11:28.526Z,52.70
2023-02-12T00:13:57.911Z,52.67
2023-02-12T00:16:29.123Z,52.48
2023-02-12T00:18:59.172Z,52.93
2023-02-12T00:21:29.070Z,53.04
2023-02-12T00:23:57.574Z,53.36
2023-02-12T00:26:25.532Z,53.28
2023-02-12T00:28:54.397Z,53.45
2023-02-12T00:31:25.971Z,53.74
2023-02-12T00:33:57.492Z,54.26
2023-02-12T00:36:28.994Z,54.39
2023-02-12T00:38:57.608Z,54.38
2023-02-12T00:41:26.552Z,55.09
2023-02-12T00:43:55.038Z,55.23
2023-02-12T00:46:23.162Z,56.13
2023-02-12T00:48:51.460Z,55.67
2023-02-12T00:51:21.329Z,55.77
2023-02-12T00:53:49.677Z,55.77
2023-02-12T00:56:17.723Z,56.22
2023-02-12T00:58:45.921Z,56.91
2023-02-12T01:01:14.104Z,57.16
2023-02-12T01:03:42.374Z,56.57
2023-02-12T01:06:10.224Z,57.56
2023-02-12T01:08:38.522Z,57.52
2023-02-12T01:11:07.000Z,57.77
2023-02-12T01:13:35.782Z,57.56
2023-02-12T01:16:14.560Z,57.06
2023-02-12T01:18:42.988Z,57.86
2023-02-12T01:21:18.056Z,57.85
2023-02-12T01:23:47.228Z,58.32
2023-02-12T01:26:17.039Z,58.38
2023-02-12T01:28:49.929Z,58.59
2023-02-12T01:31:21.086Z,58.44
2023-02-12T01:33:54.693Z,58.99
2023-02-12T01:36:23.380Z,58.93
2023-02-12T01:38:52.076Z,58.57
2023-02-12T01:41:23.862Z,58.66
2023-02-12T01:44:31.409Z,58.58
2023-02-12T01:47:05.510Z,58.11
2023-02-12T01:49:33.920Z,57.84
2023-02-12T01:52:07.404Z,58.39
2023-02-12T01:54:36.229Z,58.76
2023-02-12T01:57:06.912Z,58.92
2023-02-12T01:59:38.219Z,57.79
2023-02-12T02:02:06.571Z,58.51
2023-02-12T02:04:48.650Z,58.99
2023-02-12T02:07:16.622Z,58.42
2023-02-12T02:09:45.209Z,58.56
2023-02-12T02:12:31.729Z,58.37
2023-02-12T02:15:02.715Z,59.10
2023-02-12T02:17:39.728Z,58.30
2023-02-12T02:20:23.308Z,59.25
2023-02-12T02:23:04.984Z,58.83
2023-02-12T02:26:03.616Z,58.94
2023-02-12T02:28:59.026Z,58.54
2023-02-12T02:31:41.511Z,58.54
2023-02-12T02:34:34.973Z,58.99
2023-02-12T02:37:17.122Z,59.32
2023-02-12T02:40:00.157Z,58.47
2023-02-12T02:42:56.306Z,58.80
2023-02-12T02:45:47.844Z,59.18
2023-02-12T02:48:40.974Z,59.14
2023-02-12T02:51:14.887Z,58.98
2023-02-12T02:53:48.735Z,59.31
2023-02-12T02:56:20.357Z,58.43
2023-02-12T02:58:59.845Z,58.88
2023-02-12T03:01:44.192Z,58.48
2023-02-12T03:04:41.464Z,58.65
2023-02-12T03:07:24.815Z,58.20
2023-02-12T03:10:22.404Z,58.80
2023-02-12T03:12:57.258Z,58.79
2023-02-12T03:15:42.415Z,58.67
2023-02-12T03:18:21.516Z,57.72
2023-02-12T03:20:55.775Z,57.89
2023-02-12T03:23:28.338Z,58.25
2023-02-12T03:26:09.910Z,59.42
2023-02-12T03:28:39.006Z,59.17
2023-02-12T03:31:36.543Z,59.39
2023-02-12T03:34:23.158Z,58.97
2023-02-12T03:37:12.928Z,59.12
2023-02-12T03:40:02.461Z,59.64
2023-02-12T03:42:34.213Z,59.98
2023-02-12T03:45:20.239Z,60.33
2023-02-12T03:48:00.112Z,59.00
2023-02-12T03:50:38.930Z,59.91
2023-02-12T03:53:07.451Z,59.50
2023-02-12T03:55:40.644Z,60.13
2023-02-12T03:58:13.227Z,61.07
2023-02-12T04:00:41.237Z,61.04
2023-02-12T04:03:10.050Z,60.84
2023-02-12T04:05:38.054Z,60.59
2023-02-12T04:08:09.812Z,60.24
2023-02-12T04:11:02.167Z,60.24
2023-02-12T04:14:03.399Z,61.59
2023-02-12T04:16:38.384Z,62.30
2023-02-12T04:19:10.713Z,61.22
2023-02-12T04:21:45.074Z,61.49
2023-02-12T04:24:42.111Z,62.35
2023-02-12T04:27:20.953Z,61.18
2023-02-12T04:30:21.704Z,61.89
2023-02-12T04:32:56.756Z,61.80
2023-02-12T04:35:35.116Z,61.78
2023-02-12T04:38:15.407Z,61.99
2023-02-12T04:40:44.987Z,62.09
2023-02-12T04:43:12.879Z,61.44
2023-02-12T04:45:41.548Z,61.81
2023-02-12T04:48:09.573Z,61.66
2023-02-12T04:50:43.671Z,61.54
2023-02-12T04:53:11.616Z,62.17
2023-02-12T04:55:39.799Z,61.58
2023-02-12T04:58:07.702Z,61.22
2023-02-12T05:00:36.212Z,61.82
2023-02-12T05:03:04.768Z,60.98
2023-02-12T05:05:32.962Z,61.35
2023-02-12T05:08:00.927Z,61.81
2023-02-12T05:10:29.207Z,62.37
2023-02-12T05:12:57.040Z,62.04
2023-02-12T05:15:25.566Z,62.14
2023-02-12T05:17:53.399Z,61.71
2023-02-12T05:20:21.654Z,62.52
2023-02-12T05:22:53.489Z,62.50
2023-02-12T05:25:21.701Z,62.46
2023-02-12T05:27:49.540Z,63.00
2023-02-12T05:30:17.872Z,62.40
2023-02-12T05:32:46.018Z,62.35
2023-02-12T05:35:14.814Z,62.54
2023-02-12T05:37:42.688Z,61.67
2023-02-12T05:40:11.482Z,61.47
2023-02-12T05:42:39.466Z,61.96
2023-02-12T05:45:08.006Z,62.12
2023-02-12T05:47:35.817Z,62.65
2023-02-12T05:50:04.253Z,62.70
2023-02-12T05:52:32.093Z,62.44
2023-02-12T05:55:00.261Z,62.89
2023-02-12T05:57:28.359Z,62.05
2023-02-12T05:59:56.693Z,62.62
2023-02-12T06:02:24.668Z,63.07
2023-02-12T06:04:52.955Z,62.56
2023-02-12T06:07:20.812Z,62.82
2023-02-12T06:09:49.054Z,62.37
2023-02-12T06:12:17.038Z,63.00
2023-02-12T06:14:45.264Z,62.96
2023-02-12T06:17:13.381Z,63.04
2023-02-12T06:19:41.700Z,62.36
2023-02-12T06:22:09.509Z,62.86
2023-02-12T06:24:37.753Z,62.80
2023-02-12T06:27:05.663Z,63.08
2023-02-12T06:29:34.008Z,62.99
2023-02-12T06:32:02.001Z,62.93
2023-02-12T06:34:30.282Z,63.83
2023-02-12T06:36:58.222Z,64.07
2023-02-12T06:39:26.315Z,64.31
2023-02-12T06:41:54.682Z,63.35
2023-02-12T06:44:22.861Z,64.56
2023-02-12T06:46:50.861Z,64.55
2023-02-12T06:49:19.204Z,64.60
2023-02-12T06:51:47.062Z,64.36
2023-02-12T06:54:18.463Z,64.92
2023-02-12T06:56:46.324Z,63.78
2023-02-12T06:59:16.813Z,63.89
2023-02-12T07:01:45.074Z,64.04
2023-02-12T07:04:13.393Z,64.39
2023-02-12T07:06:41.499Z,63.66
2023-02-12T07:09:09.931Z,63.24
2023-02-12T07:11:38.733Z,63.31
2023-02-12T07:14:08.071Z,62.77
2023-02-12T07:16:36.000Z,63.70
2023-02-12T07:19:04.177Z,63.49
2023-02-12T07:21:32.343Z,63.04
2023-02-12T07:24:00.791Z,61.62
2023-02-12T07:26:29.151Z,62.04
2023-02-12T07:28:58.988Z,61.00
2023-02-12T07:31:27.040Z,60.63
2023-02-12T07:33:57.392Z,59.77
2023-02-12T07:36:27.824Z,59.02
2023-02-12T07:38:57.162Z,58.97
2023-02-12T07:41:28.258Z,59.08
2023-02-12T07:44:04.024Z,58.94
2023-02-12T07:46:35.507Z,57.78
2023-02-12T07:49:05.800Z,56.77
2023-02-12T07:51:35.682Z,56.67
2023-02-12T07:54:04.664Z,56.18
2023-02-12T07:56:35.572Z,55.65
2023-02-12T07:59:10.376Z,54.92
2023-02-12T08:01:41.409Z,54.36
2023-02-12T08:04:15.102Z,54.25
2023-02-12T08:06:45.467Z,53.44
2023-02-12T08:09:17.096Z,52.23
2023-02-12T08:11:45.654Z,51.85
2023-02-12T08:14:16.694Z,52.05
2023-02-12T08:16:46.220Z,51.77
2023-02-12T08:19:19.755Z,50.49
2023-02-12T08:21:54.322Z,49.60
2023-02-12T08:24:23.920Z,48.88
2023-02-12T08:26:52.266Z,48.42
2023-02-12T08:29:31.313Z,48.09
2023-02-12T08:32:04.144Z,46.95
2023-02-12T08:34:35.818Z,47.48
2023-02-12T08:37:06.070Z,46.82
2023-02-12T08:39:34.550Z,48.17
2023-02-12T08:42:02.541Z,48.80
2023-02-12T08:44:30.683Z,48.74
2023-02-12T08:46:58.529Z,48.50
2023-02-12T08:49:29.641Z,47.56
2023-02-12T08:51:59.369Z,46.76
2023-02-12T08:54:29.728Z,47.08
2023-02-12T08:56:59.840Z,46.50
2023-02-12T08:59:28.183Z,46.03
2023-02-12T09:01:56.254Z,45.58
2023-02-12T09:04:26.550Z,45.48
2023-02-12T09:06:55.137Z,45.22
2023-02-12T09:09:23.416Z,45.66
2023-02-12T09:11:51.491Z,45.62
2023-02-12T09:14:24.304Z,45.07
2023-02-12T09:16:54.138Z,44.67
2023-02-12T09:19:22.453Z,44.30
2023-02-12T09:21:56.101Z,43.42
2023-02-12T09:24:28.279Z,43.35
2023-02-12T09:26:57.037Z,43.03
2023-02-12T09:29:25.605Z,42.46
2023-02-12T09:31:53.787Z,41.57
2023-02-12T09:34:22.151Z,42.12
2023-02-12T09:36:50.038Z,42.04
2023-02-12T09:39:18.120Z,42.16
2023-02-12T09:41:55.623Z,42.74
2023-02-12T09:44:51.193Z,41.14
2023-02-12T09:47:34.411Z,40.08
2023-02-12T09:50:02.562Z,40.00
2023-02-12T09:52:31.160Z,39.00
2023-02-12T09:55:00.122Z,39.09
2023-02-12T09:57:33.699Z,37.99
2023-02-12T10:00:32.248Z,37.89
2023-02-12T10:03:05.456Z,34.88
2023-02-12T10:05:43.540Z,34.18
2023-02-12T10:08:29.926Z,34.53
2023-02-12T10:11:22.067Z,35.71
2023-02-12T10:14:04.576Z,36.02
2023-02-12T10:16:57.585Z,35.89
2023-02-12T10:19:43.887Z,34.88
2023-02-12T10:22:26.408Z,34.61
2023-02-12T10:24:56.920Z,35.20
2023-02-12T10:27:41.761Z,34.96
2023-02-12T10:30:50.420Z,35.00
2023-02-12T10:33:30.284Z,35.36
2023-02-12T10:36:22.782Z,34.35
2023-02-12T10:38:56.269Z,34.25
2023-02-12T10:41:27.472Z,33.25
2023-02-12T10:43:55.919Z,32.99
2023-02-12T10:46:23.940Z,31.49
2023-02-12T10:48:54.530Z,31.92
2023-02-12T10:51:34.426Z,32.70
2023-02-12T10:54:42.265Z,31.30
2023-02-12T10:57:18.525Z,30.74
2023-02-12T10:59:49.321Z,30.29
2023-02-12T11:02:25.542Z,29.56
2023-02-12T11:04:55.925Z,29.39
2023-02-12T11:07:25.339Z,28.86
2023-02-12T11:09:56.173Z,28.48
2023-02-12T11:12:38.523Z,28.43
2023-02-12T11:15:14.166Z,27.34
2023-02-12T11:17:55.770Z,28.83
2023-02-12T11:20:28.370Z,29.26
2023-02-12T11:23:01.963Z,28.18
2023-02-12T11:25:33.650Z,29.17
2023-02-12T11:28:17.609Z,28.58
2023-02-12T11:30:52.155Z,28.55
2023-02-12T11:33:23.102Z,27.48
2023-02-12T11:36:24.222Z,28.40
2023-02-12T11:38:54.590Z,27.92
2023-02-12T11:41:38.108Z,27.19
2023-02-12T11:44:12.836Z,27.16
2023-02-12T11:46:52.414Z,27.53
2023-02-12T11:49:32.180Z,27.68
2023-02-12T11:52:03.278Z,26.82
2023-02-12T11:54:39.275Z,28.91
2023-02-12T11:57:08.122Z,29.07
2023-02-12T11:59:47.219Z,28.78
2023-02-12T12:02:23.740Z,28.60
2023-02-12T12:04:56.552Z,29.13
2023-02-12T12:07:32.376Z,29.12
2023-02-12T12:10:08.362Z,29.71
2023-02-12T12:12:48.660Z,26.83
2023-02-12T12:15:47.969Z,27.17
2023-02-12T12:19:00.729Z,27.97
2023-02-12T12:21:31.499Z,26.95
2023-02-12T12:24:27.101Z,25.10
2023-02-12T12:27:40.613Z,26.39
2023-02-12T12:30:19.960Z,25.40
2023-02-12T12:32:51.950Z,26.63
2023-02-12T12:35:29.790Z,26.91
2023-02-12T12:38:39.777Z,27.57
2023-02-12T12:41:28.413Z,26.64
2023-02-12T12:44:05.201Z,26.90
2023-02-12T12:47:05.492Z,26.16
2023-02-12T12:49:46.514Z,25.92
2023-02-12T12:52:20.831Z,27.49
2023-02-12T12:54:57.602Z,28.55
2023-02-12T12:57:34.745Z,28.72
2023-02-12T13:00:28.552Z,29.21
2023-02-12T13:03:14.941Z,29.32
2023-02-12T13:06:04.586Z,29.50
2023-02-12T13:08:54.803Z,28.89
2023-02-12T13:11:42.366Z,29.38
2023-02-12T13:14:10.594Z,29.58
2023-02-12T13:16:50.087Z,27.78
2023-02-12T13:19:33.538Z,27.30
2023-02-12T13:22:11.111Z,26.33
2023-02-12T13:24:48.075Z,25.66
2023-02-12T13:27:25.936Z,24.44
2023-02-12T13:30:07.539Z,23.84
2023-02-12T13:32:43.442Z,22.19
2023-02-12T13:35:20.581Z,21.24
2023-02-12T13:37:53.580Z,21.16
2023-02-12T13:40:28.147Z,21.47
2023-02-12T13:43:11.776Z,21.06
2023-02-12T13:45:51.586Z,20.73
2023-02-12T13:48:33.515Z,19.78
2023-02-12T13:51:10.758Z,19.57
2023-02-12T13:53:55.177Z,19.54
2023-02-12T13:56:34.315Z,19.09
2023-02-12T13:59:02.204Z,18.88
2023-02-12T14:01:47.546Z,18.68
2023-02-12T14:04:21.507Z,18.43
2023-02-12T14:07:13.016Z,17.92
2023-02-12T14:10:00.850Z,16.84
2023-02-12T14:12:32.227Z,16.41
2023-02-12T14:15:18.403Z,16.75
2023-02-12T14:18:37.889Z,17.30
2023-02-12T14:21:12.280Z,17.21
2023-02-12T14:23:46.145Z,17.98
2023-02-12T14:26:17.221Z,18.67
2023-02-12T14:28:54.955Z,19.38
2023-02-12T14:31:34.837Z,19.09
2023-02-12T14:34:05.555Z,19.16
2023-02-12T14:36:33.723Z,19.25
2023-02-12T14:39:19.531Z,19.42
2023-02-12T14:41:50.329Z,19.56
2023-02-12T14:44:18.164Z,19.58
2023-02-12T14:46:52.114Z,19.89
2023-02-12T14:49:39.897Z,19.67
2023-02-12T14:52:27.406Z,19.99
2023-02-12T14:55:02.993Z,19.43
2023-02-12T14:57:37.885Z,19.73
2023-02-12T15:00:38.645Z,20.00
2023-02-12T15:03:52.629Z,20.38
2023-02-12T15:06:27.970Z,20.37
2023-02-12T15:09:03.149Z,19.98
2023-02-12T15:11:33.909Z,18.84
2023-02-12T15:14:27.273Z,19.52
2023-02-12T15:17:10.289Z,19.05
2023-02-12T15:19:43.767Z,19.20
2023-02-12T15:22:26.497Z,18.65
2023-02-12T15:24:54.788Z,18.10
2023-02-12T15:27:22.821Z,17.67
2023-02-12T15:29:54.643Z,17.61
2023-02-12T15:32:27.464Z,17.55
2023-02-12T15:34:56.813Z,17.31
2023-02-12T15:37:31.719Z,18.31
2023-02-12T15:40:04.007Z,18.10
2023-02-12T15:42:35.536Z,18.28
2023-02-12T15:45:12.755Z,18.38
2023-02-12T15:47:41.954Z,18.71
2023-02-12T15:50:16.730Z,18.75
2023-02-12T15:52:47.882Z,19.26
2023-02-12T15:55:28.859Z,20.54
2023-02-12T15:58:00.547Z,20.63
2023-02-12T16:00:48.080Z,20.40
2023-02-12T16:03:27.222Z,20.66
2023-02-12T16:06:02.230Z,22.35
2023-02-12T16:08:33.872Z,24.76
2023-02-12T16:11:13.926Z,25.36
2023-02-12T16:13:48.690Z,26.42
2023-02-12T16:16:23.678Z,26.68
2023-02-12T16:19:22.223Z,27.10
2023-02-12T16:22:12.912Z,27.85
2023-02-12T16:24:47.904Z,28.17
2023-02-12T16:27:16.177Z,28.63
2023-02-12T16:29:52.937Z,29.07
2023-02-12T16:32:39.643Z,29.38
2023-02-12T16:35:25.711Z,29.22
2023-02-12T16:38:00.604Z,29.72
2023-02-12T16:40:32.604Z,30.12
2023-02-12T16:43:23.036Z,30.38
2023-02-12T16:45:51.793Z,30.77
2023-02-12T16:48:25.335Z,31.13
2023-02-12T16:50:58.811Z,31.46
2023-02-12T16:53:34.585Z,31.63
2023-02-12T16:56:04.820Z,32.05
2023-02-12T16:58:33.293Z,31.94
2023-02-12T17:01:04.645Z,32.47
2023-02-12T17:03:34.799Z,32.47
2023-02-12T17:06:02.774Z,32.51
2023-02-12T17:08:31.114Z,32.79
2023-02-12T17:10:59.023Z,32.88
2023-02-12T17:13:27.244Z,32.90
2023-02-12T17:15:58.359Z,32.83
2023-02-12T17:18:27.535Z,32.92
2023-02-12T17:20:58.862Z,32.93
2023-02-12T17:23:27.533Z,33.16
2023-02-12T17:25:55.888Z,33.29
2023-02-12T17:28:25.398Z,33.54
2023-02-12T17:30:54.157Z,33.51
2023-02-12T17:33:22.895Z,33.67
2023-02-12T17:35:50.899Z,33.69
2023-02-12T17:38:19.236Z,33.85
2023-02-12T17:40:47.215Z,34.26
2023-02-12T17:43:15.412Z,34.12
2023-02-12T17:45:44.270Z,34.03
2023-02-12T17:48:14.082Z,34.31
2023-02-12T17:50:42.597Z,34.14
2023-02-12T17:53:11.758Z,34.53
2023-02-12T17:55:41.175Z,34.02
2023-02-12T17:58:09.606Z,34.11
2023-02-12T18:00:37.550Z,34.16
2023-02-12T18:03:05.835Z,34.71
2023-02-12T18:05:33.973Z,34.32
2023-02-12T18:08:03.914Z,34.28
2023-02-12T18:10:31.862Z,34.34
2023-02-12T18:13:00.273Z,34.38
2023-02-12T18:15:28.202Z,34.75
2023-02-12T18:17:56.476Z,34.39
2023-02-12T18:20:24.412Z,35.12
2023-02-12T18:22:52.708Z,34.92
2023-02-12T18:25:20.662Z,34.87
2023-02-12T18:27:48.968Z,34.96
2023-02-12T18:30:17.047Z,35.50
2023-02-12T18:32:45.342Z,35.57
2023-02-12T18:35:14.023Z,35.65
2023-02-12T18:37:43.441Z,35.45
2023-02-12T18:40:12.364Z,35.61
2023-02-12T18:42:40.744Z,35.63
2023-02-12T18:45:09.171Z,36.02
2023-02-12T18:47:37.671Z,36.05
2023-02-12T18:50:06.461Z,35.91
2023-02-12T18:52:34.856Z,36.13
2023-02-12T18:55:02.761Z,36.00
2023-02-12T18:57:31.302Z,36.03
2023-02-12T18:59:59.171Z,35.87
2023-02-12T19:02:27.717Z,36.61
2023-02-12T19:04:55.568Z,36.38
2023-02-12T19:07:23.724Z,36.40
2023-02-12T19:09:53.183Z,36.52
2023-02-12T19:12:21.431Z,36.67
2023-02-12T19:14:49.282Z,36.72
2023-02-12T19:17:17.471Z,36.92
2023-02-12T19:19:45.234Z,36.93
2023-02-12T19:22:13.417Z,37.11
2023-02-12T19:24:46.989Z,37.12
2023-02-12T19:27:15.677Z,37.36
2023-02-12T19:29:43.817Z,37.21
2023-02-12T19:32:11.917Z,37.51
2023-02-12T19:34:39.938Z,37.59
2023-02-12T19:37:10.993Z,37.66
2023-02-12T19:39:41.680Z,38.24
2023-02-12T19:42:11.072Z,37.85
2023-02-12T19:44:41.151Z,38.12
2023-02-12T19:47:09.539Z,38.06
2023-02-12T19:49:38.330Z,38.00
2023-02-12T19:52:06.482Z,37.98
2023-02-12T19:54:34.902Z,38.23
2023-02-12T19:57:08.762Z,37.97
2023-02-12T19:59:37.105Z,38.27
2023-02-12T20:02:05.285Z,38.15
2023-02-12T20:04:34.065Z,37.99
2023-02-12T20:07:02.281Z,38.33
2023-02-12T20:09:30.295Z,38.02
2023-02-12T20:11:59.827Z,38.07
2023-02-12T20:14:28.262Z,38.38
2023-02-12T20:16:58.745Z,38.42
2023-02-12T20:19:32.354Z,38.88
2023-02-12T20:22:02.016Z,38.87
2023-02-12T20:24:32.343Z,38.80
2023-02-12T20:27:03.429Z,39.37
2023-02-12T20:29:31.655Z,39.46
2023-02-12T20:32:00.150Z,39.76
2023-02-12T20:34:28.285Z,39.71
2023-02-12T20:36:56.616Z,40.21
2023-02-12T20:39:24.911Z,40.40
2023-02-12T20:41:53.167Z,40.86
2023-02-12T20:44:22.420Z,40.69
2023-02-12T20:46:56.392Z,40.63
2023-02-12T20:49:25.603Z,40.60
2023-02-12T20:51:54.245Z,40.62
2023-02-12T20:54:22.477Z,40.40
2023-02-12T20:56:51.178Z,40.25
2023-02-12T20:59:19.275Z,40.36
2023-02-12T21:01:48.441Z,40.54
2023-02-12T21:04:19.538Z,40.41
2023-02-12T21:06:48.763Z,40.26
2023-02-12T21:09:17.377Z,40.09
2023-02-12T21:11:46.031Z,40.37
2023-02-12T21:14:24.196Z,40.22
2023-02-12T21:16:55.457Z,40.07
2023-02-12T21:19:24.452Z,40.38
2023-02-12T21:21:53.074Z,40.51
2023-02-12T21:24:25.774Z,40.64
2023-02-12T21:26:54.950Z,40.47
2023-02-12T21:29:23.563Z,40.45
2023-02-12T21:31:51.879Z,40.25
2023-02-12T21:34:22.263Z,40.79
2023-02-12T21:36:53.210Z,40.98
2023-02-12T21:39:27.573Z,41.17
2023-02-12T21:42:00.390Z,41.57
2023-02-12T21:44:29.654Z,41.31
2023-02-12T21:46:58.810Z,41.92
2023-02-12T21:49:28.264Z,42.01
2023-02-12T21:52:06.074Z,42.37
2023-02-12T21:54:34.164Z,42.48
2023-02-12T21:57:02.176Z,42.09
2023-02-12T21:59:32.092Z,42.58
2023-02-12T22:02:00.916Z,42.70
2023-02-12T22:04:28.777Z,42.83
2023-02-12T22:06:58.207Z,42.68
2023-02-12T22:09:26.146Z,42.46
2023-02-12T22:11:54.494Z,42.49
2023-02-12T22:14:22.999Z,42.92
2023-02-12T22:16:51.319Z,43.12
2023-02-12T22:19:19.161Z,43.14
2023-02-12T22:21:51.726Z,42.59
2023-02-12T22:24:20.827Z,42.40
2023-02-12T22:26:49.127Z,42.63
2023-02-12T22:29:17.248Z,42.79
2023-02-12T22:31:46.772Z,42.94
2023-02-12T22:34:17.694Z,43.23
2023-02-12T22:36:46.473Z,43.68
2023-02-12T22:39:15.003Z,43.16
2023-02-12T22:41:43.342Z,44.00
2023-02-12T22:44:12.858Z,44.36
2023-02-12T22:46:43.274Z,44.44
2023-02-12T22:49:11.492Z,44.07
2023-02-12T22:51:39.969Z,44.05
2023-02-12T22:54:12.349Z,43.89
2023-02-12T22:56:41.240Z,44.12
2023-02-12T22:59:11.559Z,44.31
2023-02-12T23:01:40.073Z,44.64
2023-02-12T23:04:08.367Z,45.07
2023-02-12T23:06:36.831Z,44.92
2023-02-12T23:09:05.357Z,45.66
2023-02-12T23:11:34.043Z,45.64
2023-02-12T23:14:02.009Z,45.59
2023-02-12T23:16:30.327Z,46.23
2023-02-12T23:19:00.270Z,46.58
2023-02-12T23:21:30.988Z,46.42
2023-02-12T23:23:59.371Z,46.71
2023-02-12T23:26:28.976Z,47.01
2023-02-12T23:28:57.501Z,47.08
2023-02-12T23:31:26.186Z,46.58
2023-02-12T23:33:54.239Z,46.98
2023-02-12T23:36:22.544Z,47.30
2023-02-12T23:38:50.652Z,47.12
2023-02-12T23:41:19.250Z,47.44
2023-02-12T23:43:47.181Z,47.04
2023-02-12T23:46:15.605Z,47.25
2023-02-12T23:48:44.804Z,47.75
2023-02-12T23:51:13.091Z,48.13
2023-02-12T23:53:41.022Z,47.68
2023-02-12T23:56:09.275Z,48.04
2023-02-12T23:58:37.132Z,48.06
